createdAt,value
2022-07-27T00:00:52.761Z,23.00
2022-07-27T00:03:19.749Z,22.90
2022-07-27T00:05:46.892Z,22.80
2022-07-27T00:08:13.739Z,22.60
2022-07-27T00:10:40.641Z,22.60
2022-07-27T00:13:07.976Z,23.00
2022-07-27T00:15:35.069Z,23.20
2022-07-27T00:18:02.614Z,23.20
2022-07-27T00:20:31.277Z,23.20
2022-07-27T00:22:59.508Z,23.10
2022-07-27T00:25:27.746Z,23.00
2022-07-27T00:27:58.805Z,22.90
2022-07-27T00:30:26.599Z,22.80
2022-07-27T00:32:53.759Z,22.60
2022-07-27T00:35:20.960Z,22.60
2022-07-27T00:37:47.751Z,22.40
2022-07-27T00:40:15.692Z,22.20
2022-07-27T00:42:42.984Z,22.10
2022-07-27T00:45:10.608Z,22.10
2022-07-27T00:47:37.465Z,22.50
2022-07-27T00:50:05.691Z,22.50
2022-07-27T00:52:33.008Z,22.30
2022-07-27T00:55:00.135Z,22.20
2022-07-27T00:57:28.058Z,22.10
2022-07-27T00:59:55.669Z,22.20
2022-07-27T01:02:23.432Z,22.20
2022-07-27T01:04:53.520Z,22.20
2022-07-27T01:07:21.636Z,22.20
2022-07-27T01:09:56.586Z,22.20
2022-07-27T01:12:26.196Z,22.10
2022-07-27T01:14:53.617Z,22.10
2022-07-27T01:17:20.730Z,21.90
2022-07-27T01:19:47.889Z,22.00
2022-07-27T01:22:14.666Z,22.60
2022-07-27T01:24:41.469Z,22.60
2022-07-27T01:27:08.673Z,22.60
2022-07-27T01:29:36.701Z,22.50
2022-07-27T01:32:04.497Z,22.50
2022-07-27T01:34:33.616Z,22.50
2022-07-27T01:37:02.232Z,22.50
2022-07-27T01:39:29.061Z,22.40
2022-07-27T01:41:56.182Z,22.40
2022-07-27T01:44:23.045Z,22.20
2022-07-27T01:46:50.186Z,22.20
2022-07-27T01:49:17.687Z,22.10
2022-07-27T01:51:44.873Z,22.10
2022-07-27T01:54:12.391Z,22.00
2022-07-27T01:56:39.323Z,22.00
2022-07-27T01:59:06.132Z,22.00
2022-07-27T02:01:32.951Z,22.00
2022-07-27T02:03:59.735Z,22.00
2022-07-27T02:06:26.584Z,22.00
2022-07-27T02:08:53.448Z,22.00
2022-07-27T02:11:38.738Z,21.90
2022-07-27T02:14:05.671Z,21.80
2022-07-27T02:16:33.616Z,21.80
2022-07-27T02:19:00.604Z,21.70
2022-07-27T02:21:32.124Z,21.80
2022-07-27T02:23:58.877Z,21.80
2022-07-27T02:26:26.848Z,21.50
2022-07-27T02:28:53.614Z,21.40
2022-07-27T02:31:20.812Z,21.50
2022-07-27T02:33:47.604Z,21.50
2022-07-27T02:36:14.426Z,21.70
2022-07-27T02:38:41.227Z,21.80
2022-07-27T02:41:07.997Z,21.70
2022-07-27T02:43:34.793Z,21.80
2022-07-27T02:46:01.704Z,21.90
2022-07-27T02:48:28.578Z,21.80
2022-07-27T02:51:00.491Z,21.80
2022-07-27T02:53:28.453Z,21.80
2022-07-27T02:55:56.264Z,21.80
2022-07-27T02:58:23.940Z,21.70
2022-07-27T03:00:54.949Z,21.60
2022-07-27T03:03:33.871Z,21.60
2022-07-27T03:06:05.441Z,21.60
2022-07-27T03:08:32.614Z,21.60
2022-07-27T03:10:59.762Z,21.50
2022-07-27T03:13:26.777Z,21.50
2022-07-27T03:15:54.057Z,21.50
2022-07-27T03:18:21.489Z,21.50
2022-07-27T03:20:48.704Z,21.30
2022-07-27T03:23:17.995Z,21.20
2022-07-27T03:25:44.801Z,21.00
2022-07-27T03:28:11.709Z,21.00
2022-07-27T03:30:38.581Z,21.00
2022-07-27T03:33:05.607Z,21.10
2022-07-27T03:35:32.596Z,21.20
2022-07-27T03:37:59.404Z,21.20
2022-07-27T03:40:29.290Z,21.10
2022-07-27T03:42:56.571Z,21.00
2022-07-27T03:45:23.487Z,21.00
2022-07-27T03:47:50.290Z,21.00
2022-07-27T03:50:17.913Z,21.00
2022-07-27T03:52:45.408Z,20.90
2022-07-27T03:55:12.657Z,20.90
2022-07-27T03:57:39.485Z,20.80
2022-07-27T04:00:08.577Z,20.90
2022-07-27T04:02:36.015Z,21.00
2022-07-27T04:05:02.927Z,21.10
2022-07-27T04:07:29.841Z,21.70
2022-07-27T04:09:56.638Z,21.70
2022-07-27T04:12:24.108Z,21.70
2022-07-27T04:14:51.480Z,21.80
2022-07-27T04:17:56.265Z,21.70
2022-07-27T04:20:07.035Z,21.70
2022-07-27T04:22:34.332Z,21.80
2022-07-27T04:25:01.229Z,21.80
2022-07-27T04:27:28.022Z,21.80
2022-07-27T04:29:54.804Z,21.70
2022-07-27T04:32:21.628Z,21.60
2022-07-27T04:34:48.427Z,21.50
2022-07-27T04:37:15.317Z,21.50
2022-07-27T04:39:42.399Z,21.30
2022-07-27T04:42:09.519Z,21.50
2022-07-27T04:44:36.344Z,21.70
2022-07-27T04:47:03.152Z,21.80
2022-07-27T04:49:29.953Z,22.00
2022-07-27T04:51:56.849Z,22.10
2022-07-27T04:54:23.733Z,22.20
2022-07-27T04:56:50.703Z,22.20
2022-07-27T04:59:17.625Z,22.20
2022-07-27T05:01:45.379Z,22.20
2022-07-27T05:04:12.310Z,22.00
2022-07-27T05:06:39.196Z,22.00
2022-07-27T05:09:05.965Z,22.10
2022-07-27T05:11:32.984Z,22.10
2022-07-27T05:13:59.732Z,22.10
2022-07-27T05:16:28.782Z,22.20
2022-07-27T05:18:57.335Z,22.20
2022-07-27T05:21:25.145Z,22.30
2022-07-27T05:23:52.302Z,22.50
2022-07-27T05:26:19.167Z,22.60
2022-07-27T05:28:45.998Z,22.80
2022-07-27T05:31:13.275Z,22.90
2022-07-27T05:33:43.935Z,23.10
2022-07-27T05:36:15.159Z,23.10
2022-07-27T05:38:42.131Z,23.20
2022-07-27T05:41:09.569Z,23.30
2022-07-27T05:43:36.844Z,23.30
2022-07-27T05:46:04.272Z,23.20
2022-07-27T05:48:31.665Z,23.50
2022-07-27T05:50:58.988Z,23.60
2022-07-27T05:53:26.133Z,23.60
2022-07-27T05:55:58.488Z,23.60
2022-07-27T05:58:30.010Z,23.60
2022-07-27T06:01:00.374Z,23.70
2022-07-27T06:03:27.425Z,23.80
2022-07-27T06:06:14.393Z,24.00
2022-07-27T06:08:41.403Z,24.20
2022-07-27T06:11:08.412Z,24.30
2022-07-27T06:13:36.720Z,24.50
2022-07-27T06:16:04.248Z,24.60
2022-07-27T06:35:25.049Z,24.90
2022-07-27T06:37:53.011Z,25.20
2022-07-27T06:40:20.601Z,25.20
2022-07-27T06:42:47.520Z,25.20
2022-07-27T06:45:14.404Z,25.30
2022-07-27T06:47:49.088Z,25.40
2022-07-27T06:50:18.145Z,25.40
2022-07-27T06:52:44.987Z,25.40
2022-07-27T06:55:12.304Z,25.50
2022-07-27T06:57:39.112Z,25.60
2022-07-27T07:00:07.355Z,25.60
2022-07-27T07:02:34.125Z,25.60
2022-07-27T07:05:01.036Z,25.60
2022-07-27T07:07:27.797Z,25.70
2022-07-27T07:09:54.530Z,25.80
2022-07-27T07:12:21.791Z,25.70
2022-07-27T07:14:48.576Z,25.70
2022-07-27T07:17:15.408Z,25.70
2022-07-27T07:19:42.171Z,25.70
2022-07-27T07:22:08.957Z,25.80
2022-07-27T07:24:36.091Z,25.90
2022-07-27T07:27:03.436Z,26.00
2022-07-27T07:29:30.660Z,26.10
2022-07-27T07:31:57.595Z,26.20
2022-07-27T07:34:24.443Z,26.30
2022-07-27T07:36:51.712Z,26.50
2022-07-27T07:39:18.507Z,26.60
2022-07-27T07:41:45.309Z,26.70
2022-07-27T07:44:12.323Z,26.80
2022-07-27T07:46:41.533Z,26.80
2022-07-27T07:49:11.907Z,26.90
2022-07-27T07:51:39.034Z,26.90
2022-07-27T07:54:05.829Z,27.10
2022-07-27T07:56:32.786Z,27.40
2022-07-27T07:58:59.666Z,27.70
2022-07-27T08:01:26.600Z,27.80
2022-07-27T08:03:53.540Z,28.00
2022-07-27T08:06:20.378Z,28.10
2022-07-27T08:08:47.875Z,28.10
2022-07-27T08:11:14.929Z,28.20
2022-07-27T08:13:41.839Z,28.30
2022-07-27T08:16:09.102Z,28.40
2022-07-27T08:18:35.934Z,28.60
2022-07-27T08:21:02.744Z,28.60
2022-07-27T08:23:31.799Z,28.70
2022-07-27T08:26:02.866Z,28.70
2022-07-27T08:28:37.206Z,28.80
2022-07-27T08:31:08.987Z,28.90
2022-07-27T08:33:41.628Z,29.00
2022-07-27T08:36:08.483Z,29.20
2022-07-27T08:38:35.700Z,29.10
2022-07-27T08:41:06.655Z,29.20
2022-07-27T08:43:34.109Z,29.20
2022-07-27T08:46:01.429Z,29.20
2022-07-27T08:48:31.215Z,29.30
2022-07-27T08:50:58.633Z,29.50
2022-07-27T08:53:52.488Z,29.70
2022-07-27T08:56:17.836Z,29.70
2022-07-27T08:58:45.942Z,29.90
2022-07-27T09:01:12.748Z,30.00
2022-07-27T09:03:39.566Z,30.00
2022-07-27T09:06:06.370Z,30.10
2022-07-27T09:08:33.972Z,30.10
2022-07-27T09:11:03.358Z,30.10
2022-07-27T09:13:33.388Z,30.30
2022-07-27T09:16:23.556Z,30.30
2022-07-27T09:19:00.417Z,30.20
2022-07-27T09:21:28.483Z,30.20
2022-07-27T09:24:23.377Z,30.10
2022-07-27T09:27:04.303Z,30.00
2022-07-27T09:29:36.221Z,30.20
2022-07-27T09:32:14.525Z,30.30
2022-07-27T09:34:41.332Z,30.40
2022-07-27T09:37:09.606Z,30.40
2022-07-27T09:39:36.352Z,30.60
2022-07-27T09:42:03.574Z,30.80
2022-07-27T09:44:43.405Z,30.80
2022-07-27T09:47:30.796Z,30.70
2022-07-27T09:50:21.574Z,30.70
2022-07-27T09:52:48.483Z,30.70
2022-07-27T09:55:20.574Z,30.70
2022-07-27T09:57:58.606Z,30.90
2022-07-27T10:00:26.763Z,31.00
2022-07-27T10:02:54.128Z,31.00
2022-07-27T10:05:22.642Z,31.10
2022-07-27T10:07:52.809Z,31.30
2022-07-27T10:10:21.394Z,31.10
2022-07-27T10:12:54.156Z,31.10
2022-07-27T10:15:23.612Z,31.20
2022-07-27T10:18:01.443Z,31.20
2022-07-27T10:20:29.802Z,31.20
2022-07-27T10:23:01.457Z,31.30
2022-07-27T10:25:37.423Z,31.40
2022-07-27T10:28:14.871Z,31.60
2022-07-27T10:30:42.285Z,31.60
2022-07-27T10:33:17.055Z,31.60
2022-07-27T10:35:43.916Z,31.80
2022-07-27T10:38:18.184Z,31.80
2022-07-27T10:40:45.247Z,31.90
2022-07-27T10:43:22.721Z,32.10
2022-07-27T10:46:02.420Z,32.20
2022-07-27T10:48:48.087Z,32.30
2022-07-27T10:51:16.575Z,32.60
2022-07-27T10:54:10.912Z,32.50
2022-07-27T10:56:49.053Z,32.70
2022-07-27T11:00:06.414Z,33.00
2022-07-27T11:02:42.377Z,33.10
2022-07-27T11:05:57.979Z,33.40
2022-07-27T11:08:47.290Z,33.60
2022-07-27T11:10:48.216Z,33.70
2022-07-27T11:13:19.970Z,33.80
2022-07-27T11:16:22.837Z,33.60
2022-07-27T11:19:05.362Z,33.40
2022-07-27T11:21:37.185Z,33.40
2022-07-27T11:24:17.486Z,33.30
2022-07-27T11:26:47.318Z,33.20
2022-07-27T11:29:16.327Z,33.10
2022-07-27T11:31:55.430Z,33.10
2022-07-27T11:34:36.527Z,33.10
2022-07-27T11:37:11.839Z,33.10
2022-07-27T11:42:37.931Z,33.10
2022-07-27T11:45:05.437Z,32.80
2022-07-27T11:47:34.035Z,32.90
2022-07-27T11:50:07.384Z,33.00
2022-07-27T11:52:34.609Z,33.10
2022-07-27T11:55:01.505Z,33.20
2022-07-27T11:57:33.061Z,33.20
2022-07-27T12:00:00.058Z,33.40
2022-07-27T12:02:27.413Z,33.50
2022-07-27T12:05:00.426Z,33.70
2022-07-27T12:07:31.531Z,33.90
2022-07-27T12:10:05.024Z,33.90
2022-07-27T12:12:33.702Z,34.00
2022-07-27T12:18:05.899Z,34.40
2022-07-27T12:20:34.813Z,34.70
2022-07-27T12:23:07.801Z,34.70
2022-07-27T12:25:36.254Z,34.90
2022-07-27T12:28:09.347Z,34.60
2022-07-27T12:30:39.165Z,34.40
2022-07-27T12:33:29.559Z,34.30
2022-07-27T12:35:57.940Z,34.40
2022-07-27T12:38:25.440Z,34.60
2022-07-27T12:41:00.579Z,34.80
2022-07-27T12:43:28.173Z,35.00
2022-07-27T12:45:55.834Z,35.10
2022-07-27T12:48:37.672Z,35.40
2022-07-27T12:51:07.443Z,35.60
2022-07-27T12:53:36.437Z,35.50
2022-07-27T12:56:08.928Z,34.90
2022-07-27T12:58:37.370Z,34.60
2022-07-27T13:01:05.557Z,34.40
2022-07-27T13:03:32.536Z,34.20
2022-07-27T13:05:59.793Z,33.90
2022-07-27T13:08:26.625Z,33.80
2022-07-27T13:10:53.864Z,33.60
2022-07-27T13:13:24.533Z,33.40
2022-07-27T13:15:51.897Z,33.30
2022-07-27T13:18:23.178Z,33.30
2022-07-27T13:20:51.029Z,33.20
2022-07-27T13:23:18.342Z,33.00
2022-07-27T13:25:45.419Z,32.70
2022-07-27T13:28:12.629Z,32.50
2022-07-27T13:30:39.959Z,32.20
2022-07-27T13:33:06.880Z,32.00
2022-07-27T13:35:34.195Z,31.70
2022-07-27T13:38:00.987Z,31.50
2022-07-27T13:40:28.097Z,31.40
2022-07-27T13:42:54.885Z,31.40
2022-07-27T13:45:21.835Z,31.40
2022-07-27T13:47:48.743Z,31.30
2022-07-27T13:50:19.391Z,31.20
2022-07-27T13:52:48.138Z,31.10
2022-07-27T13:55:16.632Z,31.00
2022-07-27T13:57:45.822Z,30.90
2022-07-27T14:00:13.689Z,30.70
2022-07-27T14:02:41.941Z,30.60
2022-07-27T14:05:13.066Z,30.50
2022-07-27T14:07:42.022Z,30.40
2022-07-27T14:10:30.676Z,30.40
2022-07-27T14:13:07.816Z,30.30
2022-07-27T14:15:54.258Z,30.20
2022-07-27T14:18:32.366Z,30.20
2022-07-27T14:21:01.760Z,30.10
2022-07-27T14:23:30.092Z,29.90
2022-07-27T14:25:58.979Z,29.80
2022-07-27T14:28:27.696Z,29.80
2022-07-27T14:30:55.351Z,29.80
2022-07-27T14:33:23.446Z,29.70
2022-07-27T14:35:51.060Z,29.60
2022-07-27T14:38:26.793Z,29.60
2022-07-27T14:40:58.410Z,29.60
2022-07-27T14:43:25.284Z,29.50
2022-07-27T14:45:52.084Z,30.20
2022-07-27T14:48:32.138Z,29.50
2022-07-27T14:51:06.884Z,29.60
2022-07-27T14:53:33.821Z,29.70
2022-07-27T14:56:01.150Z,29.70
2022-07-27T14:58:28.340Z,29.70
2022-07-27T15:00:55.570Z,29.70
2022-07-27T15:03:23.108Z,29.70
2022-07-27T15:05:51.040Z,29.60
2022-07-27T15:08:20.202Z,29.60
2022-07-27T15:10:48.701Z,29.60
2022-07-27T15:13:15.988Z,29.60
2022-07-27T15:15:42.991Z,29.50
2022-07-27T15:18:10.309Z,29.50
2022-07-27T15:20:37.491Z,29.50
2022-07-27T15:23:04.422Z,29.40
2022-07-27T15:25:31.671Z,29.30
2022-07-27T15:27:58.722Z,29.20
2022-07-27T15:30:25.554Z,29.20
2022-07-27T15:32:52.784Z,29.10
2022-07-27T15:35:19.569Z,29.00
2022-07-27T15:37:54.603Z,29.00
2022-07-27T15:40:38.236Z,29.00
2022-07-27T15:43:07.052Z,29.00
2022-07-27T15:45:40.368Z,28.90
2022-07-27T15:48:10.156Z,28.90
2022-07-27T15:50:39.089Z,28.90
2022-07-27T15:53:06.492Z,28.80
2022-07-27T15:55:34.888Z,28.80
2022-07-27T15:58:04.101Z,28.70
2022-07-27T16:00:38.676Z,28.70
2022-07-27T16:03:06.781Z,28.70
2022-07-27T16:05:34.077Z,28.70
2022-07-27T16:08:00.986Z,28.60
2022-07-27T16:10:29.871Z,28.50
2022-07-27T16:12:57.852Z,28.50
2022-07-27T16:15:44.700Z,28.50
2022-07-27T16:18:12.239Z,28.50
2022-07-27T16:20:39.120Z,28.40
2022-07-27T16:23:18.683Z,28.30
2022-07-27T16:26:10.029Z,28.30
2022-07-27T16:28:40.921Z,28.40
2022-07-27T16:31:10.487Z,28.30
2022-07-27T16:33:37.885Z,28.30
2022-07-27T16:36:08.831Z,28.10
2022-07-27T16:38:37.063Z,27.90
2022-07-27T16:41:07.110Z,27.80
2022-07-27T16:43:38.574Z,27.50
2022-07-27T16:46:10.200Z,27.20
2022-07-27T16:48:42.260Z,27.00
2022-07-27T16:51:11.377Z,26.80
2022-07-27T16:53:39.735Z,26.70
2022-07-27T16:56:06.986Z,26.40
2022-07-27T16:58:34.386Z,25.90
2022-07-27T17:01:01.499Z,25.40
2022-07-27T17:03:28.451Z,24.80
2022-07-27T17:05:55.249Z,24.40
2022-07-27T17:08:27.833Z,24.40
2022-07-27T17:10:55.540Z,24.40
2022-07-27T17:13:22.342Z,24.00
2022-07-27T17:16:00.836Z,23.60
2022-07-27T17:18:27.914Z,23.20
2022-07-27T17:20:54.729Z,22.60
2022-07-27T17:23:21.501Z,22.10
2022-07-27T17:25:48.277Z,21.70
2022-07-27T17:28:15.167Z,21.40
2022-07-27T17:30:42.405Z,21.30
2022-07-27T17:33:09.210Z,21.20
2022-07-27T17:35:36.005Z,21.10
2022-07-27T17:38:06.581Z,21.10
2022-07-27T17:40:35.619Z,21.10
2022-07-27T17:43:03.089Z,21.10
2022-07-27T17:45:29.946Z,21.10
2022-07-27T17:47:57.122Z,21.10
2022-07-27T17:50:24.297Z,22.10
2022-07-27T17:52:51.059Z,21.30
2022-07-27T17:55:18.265Z,21.50
2022-07-27T17:57:45.292Z,21.50
2022-07-27T18:00:12.864Z,22.00
2022-07-27T18:02:40.027Z,22.20
2022-07-27T18:05:07.302Z,22.20
2022-07-27T18:07:39.092Z,22.30
2022-07-27T18:10:08.692Z,22.40
2022-07-27T18:12:35.891Z,22.40
2022-07-27T18:15:22.080Z,22.50
2022-07-27T18:17:48.900Z,22.60
2022-07-27T18:20:16.099Z,22.60
2022-07-27T18:22:42.973Z,22.60
2022-07-27T18:25:10.185Z,22.60
2022-07-27T18:27:37.484Z,22.50
2022-07-27T18:30:05.700Z,22.40
2022-07-27T18:32:33.381Z,22.20
2022-07-27T18:35:01.690Z,22.10
2022-07-27T18:37:28.695Z,22.20
2022-07-27T18:39:55.602Z,22.50
2022-07-27T18:42:22.995Z,22.60
2022-07-27T18:44:50.280Z,22.40
2022-07-27T18:47:17.496Z,22.40
2022-07-27T18:49:44.315Z,22.30
2022-07-27T18:52:11.536Z,22.30
2022-07-27T18:54:38.308Z,22.40
2022-07-27T18:57:05.690Z,22.30
2022-07-27T18:59:32.693Z,22.20
2022-07-27T19:02:02.403Z,22.10
2022-07-27T19:04:29.846Z,21.90
2022-07-27T19:06:57.099Z,21.80
2022-07-27T19:09:24.831Z,21.90
2022-07-27T19:11:51.675Z,22.00
2022-07-27T19:14:22.815Z,22.10
2022-07-27T19:16:50.756Z,22.00
2022-07-27T19:19:22.872Z,22.10
2022-07-27T19:21:50.309Z,22.10
2022-07-27T19:24:17.119Z,22.20
2022-07-27T19:26:44.104Z,22.50
2022-07-27T19:29:13.317Z,22.80
2022-07-27T19:31:40.799Z,23.30
2022-07-27T19:34:07.664Z,23.20
2022-07-27T19:36:34.770Z,23.10
2022-07-27T19:39:07.310Z,23.10
2022-07-27T19:41:34.832Z,23.10
2022-07-27T19:44:02.317Z,23.00
2022-07-27T19:46:29.199Z,23.00
2022-07-27T19:48:56.198Z,22.90
2022-07-27T19:51:23.471Z,22.90
2022-07-27T19:53:50.355Z,22.90
2022-07-27T19:56:17.691Z,22.90
2022-07-27T19:58:44.513Z,22.90
2022-07-27T20:01:12.532Z,23.20
2022-07-27T20:03:54.033Z,23.60
2022-07-27T20:06:24.863Z,23.50
2022-07-27T20:08:55.969Z,23.20
2022-07-27T20:11:23.165Z,23.00
2022-07-27T20:13:49.933Z,23.00
2022-07-27T20:16:18.089Z,23.00
2022-07-27T20:18:45.220Z,23.00
2022-07-27T20:21:22.645Z,23.00
2022-07-27T20:23:52.242Z,23.00
2022-07-27T20:26:20.693Z,23.00
2022-07-27T20:28:49.792Z,23.00
2022-07-27T20:31:17.445Z,23.00
2022-07-27T20:33:44.288Z,23.00
2022-07-27T20:36:11.096Z,23.00
2022-07-27T20:38:37.931Z,23.00
2022-07-27T20:41:05.115Z,23.10
2022-07-27T20:43:32.552Z,23.00
2022-07-27T20:45:59.486Z,23.00
2022-07-27T20:48:26.599Z,22.90
2022-07-27T20:50:53.771Z,23.00
2022-07-27T20:53:20.747Z,23.00
2022-07-27T20:55:48.270Z,22.90
2022-07-27T20:58:15.469Z,22.70
2022-07-27T21:00:42.415Z,22.50
2022-07-27T21:03:09.190Z,22.40
2022-07-27T21:05:36.516Z,22.40
2022-07-27T21:08:03.983Z,22.40
2022-07-27T21:10:30.812Z,22.30
2022-07-27T21:12:57.802Z,22.10
2022-07-27T21:15:33.753Z,21.90
2022-07-27T21:18:02.100Z,21.80
2022-07-27T21:20:29.472Z,21.70
2022-07-27T21:23:15.185Z,21.60
2022-07-27T21:25:43.320Z,21.60
2022-07-27T21:28:11.659Z,21.70
2022-07-27T21:30:43.801Z,21.80
2022-07-27T21:33:10.603Z,21.90
2022-07-27T21:35:37.480Z,21.90
2022-07-27T21:38:04.721Z,22.00
2022-07-27T21:40:32.360Z,22.10
2022-07-27T21:42:59.093Z,22.10
2022-07-27T21:45:26.492Z,22.20
2022-07-27T21:47:53.306Z,22.30
2022-07-27T21:50:20.159Z,22.30
2022-07-27T21:52:47.034Z,22.30
2022-07-27T21:55:13.844Z,22.30
2022-07-27T21:57:49.569Z,22.30
2022-07-27T22:00:20.878Z,22.30
2022-07-27T22:02:48.743Z,22.30
2022-07-27T22:05:16.723Z,22.30
2022-07-27T22:07:43.942Z,22.30
2022-07-27T22:10:11.018Z,22.40
2022-07-27T22:12:37.774Z,22.40
2022-07-27T22:15:05.311Z,22.50
2022-07-27T22:17:32.093Z,22.50
2022-07-27T22:19:58.854Z,22.50
2022-07-27T22:22:26.304Z,22.60
2022-07-27T22:24:53.489Z,22.50
2022-07-27T22:27:20.972Z,22.50
2022-07-27T22:29:48.213Z,22.40
2022-07-27T22:32:15.064Z,22.30
2022-07-27T22:34:42.323Z,22.20
2022-07-27T22:37:09.347Z,22.20
2022-07-27T22:39:36.187Z,22.20
2022-07-27T22:42:05.807Z,22.20
2022-07-27T22:44:35.448Z,22.20
2022-07-27T22:47:02.187Z,22.20
2022-07-27T22:49:28.947Z,22.20
2022-07-27T22:51:55.869Z,22.20
2022-07-27T22:54:22.672Z,22.20
2022-07-27T22:56:49.699Z,22.20
2022-07-27T22:59:16.470Z,22.20
2022-07-27T23:01:47.504Z,22.10
2022-07-27T23:04:17.420Z,22.10
2022-07-27T23:06:45.275Z,22.10
2022-07-27T23:09:12.443Z,22.00
2022-07-27T23:11:39.216Z,22.00
2022-07-27T23:14:07.437Z,22.00
2022-07-27T23:16:34.800Z,22.00
2022-07-27T23:19:01.616Z,22.00
2022-07-27T23:21:28.465Z,22.00
2022-07-27T23:23:55.232Z,21.90
2022-07-27T23:26:23.113Z,21.90
2022-07-27T23:28:53.847Z,21.90
2022-07-27T23:31:21.509Z,21.90
2022-07-27T23:33:49.063Z,21.90
2022-07-27T23:36:16.163Z,21.80
2022-07-27T23:38:42.963Z,21.90
2022-07-27T23:41:09.790Z,21.80
2022-07-27T23:43:37.064Z,21.80
2022-07-27T23:46:04.464Z,21.80
2022-07-27T23:48:31.418Z,21.80
2022-07-27T23:50:58.556Z,21.90
2022-07-27T23:53:25.765Z,21.90
2022-07-27T23:55:53.050Z,21.90
2022-07-27T23:58:20.075Z,21.90
